createdAt,value
2022-08-26T00:04:48.127Z,26.10
2022-08-26T00:09:54.375Z,26.10
2022-08-26T00:15:00.701Z,26.10
2022-08-26T00:20:06.026Z,26.10
2022-08-26T00:25:11.389Z,26.00
2022-08-26T00:30:27.226Z,26.00
2022-08-26T00:35:31.067Z,25.90
2022-08-26T00:40:40.722Z,25.80
2022-08-26T00:45:49.846Z,25.80
2022-08-26T00:50:57.414Z,25.70
2022-08-26T00:56:04.765Z,25.80
2022-08-26T01:01:10.623Z,25.70
2022-08-26T01:06:14.751Z,25.70
2022-08-26T01:11:18.197Z,25.70
2022-08-26T01:16:24.862Z,25.70
2022-08-26T01:21:36.044Z,25.70
2022-08-26T01:26:46.098Z,25.70
2022-08-26T01:31:56.922Z,25.60
2022-08-26T01:37:05.911Z,25.50
2022-08-26T01:42:14.657Z,25.50
2022-08-26T01:47:21.208Z,25.50
2022-08-26T01:52:28.233Z,25.60
2022-08-26T01:57:33.846Z,25.70
2022-08-26T02:02:37.581Z,25.80
2022-08-26T02:07:42.437Z,26.00
2022-08-26T02:12:47.398Z,26.10
2022-08-26T02:17:53.252Z,26.10
2022-08-26T02:22:56.761Z,26.10
2022-08-26T02:28:02.469Z,26.10
2022-08-26T02:33:07.031Z,26.00
2022-08-26T02:38:11.518Z,25.90
2022-08-26T02:43:16.971Z,25.90
2022-08-26T02:48:22.316Z,26.00
2022-08-26T02:53:25.804Z,25.90
2022-08-26T02:58:30.555Z,25.90
2022-08-26T03:03:34.057Z,25.90
2022-08-26T03:08:37.508Z,25.90
2022-08-26T03:13:43.171Z,25.90
2022-08-26T03:18:52.073Z,26.00
2022-08-26T03:23:58.578Z,26.00
2022-08-26T03:29:21.160Z,26.00
2022-08-26T03:34:24.804Z,26.00
2022-08-26T03:39:31.671Z,25.90
2022-08-26T03:44:38.274Z,25.90
2022-08-26T03:49:45.632Z,25.80
2022-08-26T03:54:49.000Z,25.80
2022-08-26T03:59:53.862Z,25.70
2022-08-26T04:04:57.230Z,25.70
2022-08-26T04:10:00.595Z,25.60
2022-08-26T04:15:06.066Z,25.60
2022-08-26T04:20:10.279Z,25.50
2022-08-26T04:25:14.419Z,25.50
2022-08-26T04:30:20.526Z,25.40
2022-08-26T04:35:26.116Z,25.40
2022-08-26T04:40:29.711Z,25.30
2022-08-26T04:45:37.401Z,25.30
2022-08-26T04:50:40.964Z,25.30
2022-08-26T04:55:46.348Z,25.30
2022-08-26T05:00:55.042Z,25.30
2022-08-26T05:05:58.845Z,25.20
2022-08-26T05:11:06.031Z,25.10
2022-08-26T05:16:13.240Z,25.10
2022-08-26T05:21:23.166Z,25.10
2022-08-26T05:26:33.179Z,25.10
2022-08-26T05:31:38.891Z,25.10
2022-08-26T05:36:42.318Z,25.10
2022-08-26T05:41:45.931Z,25.10
2022-08-26T05:46:51.764Z,25.00
2022-08-26T05:51:55.402Z,25.00
2022-08-26T05:56:59.064Z,25.00
2022-08-26T06:02:04.688Z,25.00
2022-08-26T06:07:11.519Z,25.00
2022-08-26T06:12:15.777Z,25.00
2022-08-26T06:17:23.256Z,25.10
2022-08-26T06:22:44.761Z,25.10
2022-08-26T06:27:48.926Z,25.20
2022-08-26T06:32:54.078Z,25.20
2022-08-26T06:37:58.175Z,25.20
2022-08-26T06:43:01.572Z,25.20
2022-08-26T06:48:07.234Z,25.30
2022-08-26T06:53:11.167Z,25.30
2022-08-26T06:58:14.961Z,25.40
2022-08-26T07:03:22.177Z,25.40
2022-08-26T07:08:25.811Z,25.40
2022-08-26T07:13:30.486Z,25.50
2022-08-26T07:18:37.622Z,25.50
2022-08-26T07:23:43.173Z,25.60
2022-08-26T07:28:48.553Z,25.60
2022-08-26T07:33:55.033Z,25.60
2022-08-26T07:38:58.561Z,25.70
2022-08-26T07:44:02.137Z,25.70
2022-08-26T07:49:09.385Z,25.80
2022-08-26T07:54:12.969Z,25.80
2022-08-26T07:59:17.610Z,25.90
2022-08-26T08:04:26.427Z,25.90
2022-08-26T08:09:30.337Z,26.00
2022-08-26T08:14:34.671Z,26.10
2022-08-26T08:19:39.493Z,26.10
2022-08-26T08:24:43.050Z,26.20
2022-08-26T08:29:47.392Z,26.20
2022-08-26T08:34:53.394Z,26.30
2022-08-26T08:39:56.930Z,26.30
2022-08-26T08:45:06.223Z,26.40
2022-08-26T08:50:21.672Z,26.40
2022-08-26T08:55:34.504Z,26.40
2022-08-26T09:00:46.849Z,26.50
2022-08-26T09:05:53.437Z,26.60
2022-08-26T09:11:01.966Z,26.60
2022-08-26T09:16:13.847Z,26.70
2022-08-26T09:21:23.607Z,26.80
2022-08-26T09:26:31.348Z,26.80
2022-08-26T09:31:36.467Z,26.80
2022-08-26T09:36:43.870Z,26.90
2022-08-26T09:42:07.275Z,26.90
2022-08-26T09:47:10.759Z,26.90
2022-08-26T09:52:22.434Z,26.90
2022-08-26T09:57:30.361Z,26.90
2022-08-26T10:02:47.503Z,27.00
2022-08-26T10:07:53.154Z,27.00
2022-08-26T10:13:04.214Z,27.10
2022-08-26T10:18:14.713Z,27.30
2022-08-26T10:23:23.279Z,27.30
2022-08-26T10:28:34.162Z,27.40
2022-08-26T10:33:39.759Z,27.50
2022-08-26T10:38:44.928Z,27.70
2022-08-26T10:43:53.851Z,27.70
2022-08-26T10:49:06.533Z,27.80
2022-08-26T10:54:17.172Z,27.90
2022-08-26T10:59:29.679Z,28.00
2022-08-26T11:04:48.339Z,28.20
2022-08-26T11:09:53.949Z,28.30
2022-08-26T11:14:59.381Z,28.40
2022-08-26T11:20:09.218Z,28.60
2022-08-26T11:25:19.419Z,28.90
2022-08-26T11:30:56.945Z,29.50
2022-08-26T11:36:07.464Z,30.10
2022-08-26T11:41:23.112Z,30.70
2022-08-26T11:46:30.586Z,31.30
2022-08-26T11:51:39.706Z,31.70
2022-08-26T11:56:48.765Z,32.10
2022-08-26T12:01:54.663Z,32.40
2022-08-26T12:07:00.855Z,32.70
2022-08-26T12:12:14.139Z,33.00
2022-08-26T12:17:22.612Z,33.30
2022-08-26T12:22:28.826Z,33.50
2022-08-26T12:27:35.936Z,33.70
2022-08-26T12:32:52.830Z,33.90
2022-08-26T12:38:03.379Z,34.10
2022-08-26T12:43:09.980Z,34.30
2022-08-26T12:48:24.482Z,34.40
2022-08-26T12:53:31.941Z,34.70
2022-08-26T12:58:39.127Z,34.90
2022-08-26T13:03:44.991Z,35.10
2022-08-26T13:08:52.740Z,35.30
2022-08-26T13:14:00.773Z,35.50
2022-08-26T13:19:10.375Z,35.60
2022-08-26T13:24:16.333Z,35.80
2022-08-26T13:29:21.787Z,35.80
2022-08-26T13:34:25.703Z,35.90
2022-08-26T13:39:29.361Z,36.00
2022-08-26T13:44:34.630Z,36.20
2022-08-26T13:49:38.103Z,36.30
2022-08-26T13:54:41.767Z,36.40
2022-08-26T13:59:46.517Z,36.50
2022-08-26T14:04:50.219Z,36.60
2022-08-26T14:09:53.694Z,36.80
2022-08-26T14:14:58.454Z,37.00
2022-08-26T14:20:01.939Z,37.10
2022-08-26T14:25:06.156Z,37.20
2022-08-26T14:30:12.375Z,37.40
2022-08-26T14:35:20.612Z,37.60
2022-08-26T14:40:33.975Z,37.80
2022-08-26T14:45:46.023Z,38.00
